sensor_id;sensor_type;location;lat;lon;timestamp;temperature;humidity
7117;DHT22;3600;48.568;7.870;2022-12-15T00:02:15;-0.90;99.90
7117;DHT22;3600;48.568;7.870;2022-12-15T00:05:01;-0.90;99.90
7117;DHT22;3600;48.568;7.870;2022-12-15T00:07:47;-1.00;99.90
7117;DHT22;3600;48.568;7.870;2022-12-15T00:10:32;-0.90;99.90
7117;DHT22;3600;48.568;7.870;2022-12-15T00:13:18;-0.90;99.90
7117;DHT22;3600;48.568;7.870;2022-12-15T00:16:04;-0.90;99.90
7117;DHT22;3600;48.568;7.870;2022-12-15T00:18:49;-0.90;99.90
7117;DHT22;3600;48.568;7.870;2022-12-15T00:21:34;-0.90;99.90
7117;DHT22;3600;48.568;7.870;2022-12-15T00:24:20;-0.80;99.90
7117;DHT22;3600;48.568;7.870;2022-12-15T00:27:05;-0.70;99.90
7117;DHT22;3600;48.568;7.870;2022-12-15T00:29:51;-0.50;99.90
7117;DHT22;3600;48.568;7.870;2022-12-15T00:32:36;-0.60;99.90
7117;DHT22;3600;48.568;7.870;2022-12-15T00:35:21;-0.80;99.90
7117;DHT22;3600;48.568;7.870;2022-12-15T00:38:16;-1.00;99.90
7117;DHT22;3600;48.568;7.870;2022-12-15T00:41:02;-0.90;99.90
7117;DHT22;3600;48.568;7.870;2022-12-15T00:43:30;-0.80;99.90
7117;DHT22;3600;48.568;7.870;2022-12-15T00:45:58;-0.80;99.90
7117;DHT22;3600;48.568;7.870;2022-12-15T00:48:44;-0.70;99.90
7117;DHT22;3600;48.568;7.870;2022-12-15T00:51:11;-0.60;99.90
7117;DHT22;3600;48.568;7.870;2022-12-15T00:53:38;-0.80;99.90
7117;DHT22;3600;48.568;7.870;2022-12-15T00:56:24;-0.70;99.90
7117;DHT22;3600;48.568;7.870;2022-12-15T00:59:10;-0.90;99.90
7117;DHT22;3600;48.568;7.870;2022-12-15T01:01:55;-0.90;99.90
7117;DHT22;3600;48.568;7.870;2022-12-15T01:04:41;-0.90;99.90
7117;DHT22;3600;48.568;7.870;2022-12-15T01:07:26;-0.70;99.90
7117;DHT22;3600;48.568;7.870;2022-12-15T01:10:16;-0.80;99.90
7117;DHT22;3600;48.568;7.870;2022-12-15T01:13:02;-0.90;99.90
7117;DHT22;3600;48.568;7.870;2022-12-15T01:15:48;-0.80;99.90
7117;DHT22;3600;48.568;7.870;2022-12-15T01:18:34;-0.70;99.90
7117;DHT22;3600;48.568;7.870;2022-12-15T01:21:19;-0.80;99.90
7117;DHT22;3600;48.568;7.870;2022-12-15T01:23:50;-0.80;99.90
7117;DHT22;3600;48.568;7.870;2022-12-15T01:26:17;-0.70;99.90
7117;DHT22;3600;48.568;7.870;2022-12-15T01:28:44;-0.70;99.90
7117;DHT22;3600;48.568;7.870;2022-12-15T01:31:11;-0.70;99.90
7117;DHT22;3600;48.568;7.870;2022-12-15T01:33:38;-0.60;99.90
7117;DHT22;3600;48.568;7.870;2022-12-15T01:36:08;-0.60;99.90
7117;DHT22;3600;48.568;7.870;2022-12-15T01:38:35;-0.80;99.90
7117;DHT22;3600;48.568;7.870;2022-12-15T01:41:05;-0.90;99.90
7117;DHT22;3600;48.568;7.870;2022-12-15T01:43:35;-0.90;99.90
7117;DHT22;3600;48.568;7.870;2022-12-15T01:46:07;-1.00;99.90
7117;DHT22;3600;48.568;7.870;2022-12-15T01:51:22;-1.00;99.90
7117;DHT22;3600;48.568;7.870;2022-12-15T01:54:16;-1.00;99.90
7117;DHT22;3600;48.568;7.870;2022-12-15T01:56:44;-1.00;99.90
7117;DHT22;3600;48.568;7.870;2022-12-15T01:59:15;-0.80;99.90
7117;DHT22;3600;48.568;7.870;2022-12-15T02:01:45;-0.80;99.90
7117;DHT22;3600;48.568;7.870;2022-12-15T02:04:18;-0.60;99.90
7117;DHT22;3600;48.568;7.870;2022-12-15T02:06:46;-0.70;99.90
7117;DHT22;3600;48.568;7.870;2022-12-15T02:09:13;-0.80;99.90
7117;DHT22;3600;48.568;7.870;2022-12-15T02:20:57;-0.90;99.90
7117;DHT22;3600;48.568;7.870;2022-12-15T02:29:10;-1.00;99.90
7117;DHT22;3600;48.568;7.870;2022-12-15T02:32:21;-0.90;99.90
7117;DHT22;3600;48.568;7.870;2022-12-15T02:34:45;-0.90;99.90
7117;DHT22;3600;48.568;7.870;2022-12-15T02:37:17;-0.90;99.90
7117;DHT22;3600;48.568;7.870;2022-12-15T02:39:46;-1.20;99.90
7117;DHT22;3600;48.568;7.870;2022-12-15T02:42:13;-1.30;99.90
7117;DHT22;3600;48.568;7.870;2022-12-15T02:50:49;-1.30;99.90
7117;DHT22;3600;48.568;7.870;2022-12-15T02:56:22;-1.50;99.90
7117;DHT22;3600;48.568;7.870;2022-12-15T03:01:52;-1.40;99.90
7117;DHT22;3600;48.568;7.870;2022-12-15T03:04:22;-1.60;99.90
7117;DHT22;3600;48.568;7.870;2022-12-15T03:06:56;-1.60;99.90
7117;DHT22;3600;48.568;7.870;2022-12-15T03:09:27;-1.60;99.90
7117;DHT22;3600;48.568;7.870;2022-12-15T03:11:54;-1.60;99.90
7117;DHT22;3600;48.568;7.870;2022-12-15T03:14:21;-1.60;99.90
7117;DHT22;3600;48.568;7.870;2022-12-15T03:16:47;-1.60;99.90
7117;DHT22;3600;48.568;7.870;2022-12-15T03:19:14;-1.60;99.90
7117;DHT22;3600;48.568;7.870;2022-12-15T03:21:41;-1.70;99.90
7117;DHT22;3600;48.568;7.870;2022-12-15T03:24:07;-1.60;99.90
7117;DHT22;3600;48.568;7.870;2022-12-15T03:26:34;-1.70;99.90
7117;DHT22;3600;48.568;7.870;2022-12-15T03:29:01;-1.50;99.90
7117;DHT22;3600;48.568;7.870;2022-12-15T03:31:28;-1.50;99.90
7117;DHT22;3600;48.568;7.870;2022-12-15T03:33:54;-1.60;99.90
7117;DHT22;3600;48.568;7.870;2022-12-15T03:36:21;-1.50;99.90
7117;DHT22;3600;48.568;7.870;2022-12-15T03:38:48;-1.50;99.90
7117;DHT22;3600;48.568;7.870;2022-12-15T03:41:15;-1.60;99.90
7117;DHT22;3600;48.568;7.870;2022-12-15T03:43:43;-1.40;99.90
7117;DHT22;3600;48.568;7.870;2022-12-15T03:46:15;-1.40;99.90
7117;DHT22;3600;48.568;7.870;2022-12-15T03:48:42;-1.40;99.90
7117;DHT22;3600;48.568;7.870;2022-12-15T03:51:08;-1.60;99.90
7117;DHT22;3600;48.568;7.870;2022-12-15T03:53:35;-1.50;99.90
7117;DHT22;3600;48.568;7.870;2022-12-15T03:56:02;-1.40;99.90
7117;DHT22;3600;48.568;7.870;2022-12-15T03:58:29;-1.70;99.90
7117;DHT22;3600;48.568;7.870;2022-12-15T04:00:55;-1.70;99.90
7117;DHT22;3600;48.568;7.870;2022-12-15T04:03:22;-1.60;99.90
7117;DHT22;3600;48.568;7.870;2022-12-15T04:05:49;-1.60;99.90
7117;DHT22;3600;48.568;7.870;2022-12-15T04:08:16;-1.50;99.90
7117;DHT22;3600;48.568;7.870;2022-12-15T04:10:43;-1.40;99.90
7117;DHT22;3600;48.568;7.870;2022-12-15T04:13:10;-1.50;99.90
7117;DHT22;3600;48.568;7.870;2022-12-15T04:15:38;-1.40;99.90
7117;DHT22;3600;48.568;7.870;2022-12-15T04:18:07;-1.50;99.90
7117;DHT22;3600;48.568;7.870;2022-12-15T04:20:37;-1.50;99.90
7117;DHT22;3600;48.568;7.870;2022-12-15T04:23:03;-1.50;99.90
7117;DHT22;3600;48.568;7.870;2022-12-15T04:25:33;-1.40;99.90
7117;DHT22;3600;48.568;7.870;2022-12-15T04:28:18;-1.50;99.90
7117;DHT22;3600;48.568;7.870;2022-12-15T04:31:20;-1.50;99.90
7117;DHT22;3600;48.568;7.870;2022-12-15T04:34:10;-1.50;99.90
7117;DHT22;3600;48.568;7.870;2022-12-15T04:36:56;-1.70;99.90
7117;DHT22;3600;48.568;7.870;2022-12-15T04:39:44;-1.70;99.90
7117;DHT22;3600;48.568;7.870;2022-12-15T04:42:31;-1.40;99.90
7117;DHT22;3600;48.568;7.870;2022-12-15T04:45:20;-1.40;99.90
7117;DHT22;3600;48.568;7.870;2022-12-15T04:48:06;-1.70;99.90
7117;DHT22;3600;48.568;7.870;2022-12-15T04:50:51;-1.60;99.90
7117;DHT22;3600;48.568;7.870;2022-12-15T04:53:37;-1.50;99.90
7117;DHT22;3600;48.568;7.870;2022-12-15T04:56:22;-1.70;99.90
7117;DHT22;3600;48.568;7.870;2022-12-15T04:59:08;-1.70;99.90
7117;DHT22;3600;48.568;7.870;2022-12-15T05:01:53;-1.50;99.90
7117;DHT22;3600;48.568;7.870;2022-12-15T05:04:39;-1.60;99.90
7117;DHT22;3600;48.568;7.870;2022-12-15T05:07:25;-1.60;99.90
7117;DHT22;3600;48.568;7.870;2022-12-15T05:10:10;-1.30;99.90
7117;DHT22;3600;48.568;7.870;2022-12-15T05:13:06;-1.30;99.90
7117;DHT22;3600;48.568;7.870;2022-12-15T05:15:52;-1.50;99.90
7117;DHT22;3600;48.568;7.870;2022-12-15T05:18:38;-1.40;99.90
7117;DHT22;3600;48.568;7.870;2022-12-15T05:21:23;-1.50;99.90
7117;DHT22;3600;48.568;7.870;2022-12-15T05:24:08;-1.40;99.90
7117;DHT22;3600;48.568;7.870;2022-12-15T05:26:54;-1.10;99.90
7117;DHT22;3600;48.568;7.870;2022-12-15T05:29:39;-1.00;99.90
7117;DHT22;3600;48.568;7.870;2022-12-15T05:32:24;-1.60;99.90
7117;DHT22;3600;48.568;7.870;2022-12-15T05:34:51;-1.60;99.90
7117;DHT22;3600;48.568;7.870;2022-12-15T05:37:18;-1.70;99.90
7117;DHT22;3600;48.568;7.870;2022-12-15T05:39:44;-1.60;99.90
7117;DHT22;3600;48.568;7.870;2022-12-15T05:42:11;-1.60;99.90
7117;DHT22;3600;48.568;7.870;2022-12-15T05:44:38;-1.50;99.90
7117;DHT22;3600;48.568;7.870;2022-12-15T05:47:04;-1.60;99.90
7117;DHT22;3600;48.568;7.870;2022-12-15T05:49:31;-1.60;99.90
7117;DHT22;3600;48.568;7.870;2022-12-15T05:51:58;-1.50;99.90
7117;DHT22;3600;48.568;7.870;2022-12-15T05:54:25;-1.60;99.90
7117;DHT22;3600;48.568;7.870;2022-12-15T05:56:52;-1.50;99.90
7117;DHT22;3600;48.568;7.870;2022-12-15T05:59:19;-1.40;99.90
7117;DHT22;3600;48.568;7.870;2022-12-15T06:01:46;-1.40;99.90
7117;DHT22;3600;48.568;7.870;2022-12-15T06:04:12;-1.60;99.90
7117;DHT22;3600;48.568;7.870;2022-12-15T06:06:40;-1.50;99.90
7117;DHT22;3600;48.568;7.870;2022-12-15T06:09:07;-1.60;99.90
7117;DHT22;3600;48.568;7.870;2022-12-15T06:11:34;-1.60;99.90
7117;DHT22;3600;48.568;7.870;2022-12-15T06:14:01;-1.60;99.90
7117;DHT22;3600;48.568;7.870;2022-12-15T06:16:27;-1.80;99.90
7117;DHT22;3600;48.568;7.870;2022-12-15T06:18:57;-1.80;99.90
7117;DHT22;3600;48.568;7.870;2022-12-15T06:21:27;-1.80;99.90
7117;DHT22;3600;48.568;7.870;2022-12-15T06:23:54;-1.80;99.90
7117;DHT22;3600;48.568;7.870;2022-12-15T06:26:24;-1.70;99.90
7117;DHT22;3600;48.568;7.870;2022-12-15T06:28:53;-1.80;99.90
7117;DHT22;3600;48.568;7.870;2022-12-15T06:31:21;-1.70;99.90
7117;DHT22;3600;48.568;7.870;2022-12-15T06:33:49;-1.70;99.90
7117;DHT22;3600;48.568;7.870;2022-12-15T06:36:25;-1.50;99.90
7117;DHT22;3600;48.568;7.870;2022-12-15T06:38:53;-1.20;99.90
7117;DHT22;3600;48.568;7.870;2022-12-15T06:41:23;-1.20;99.90
7117;DHT22;3600;48.568;7.870;2022-12-15T06:43:52;-1.30;99.90
7117;DHT22;3600;48.568;7.870;2022-12-15T06:46:19;-1.40;99.90
7117;DHT22;3600;48.568;7.870;2022-12-15T06:48:46;-1.50;99.90
7117;DHT22;3600;48.568;7.870;2022-12-15T06:51:14;-1.40;99.90
7117;DHT22;3600;48.568;7.870;2022-12-15T06:53:43;-1.50;99.90
7117;DHT22;3600;48.568;7.870;2022-12-15T06:56:29;-1.50;99.90
7117;DHT22;3600;48.568;7.870;2022-12-15T06:59:01;-1.40;99.90
7117;DHT22;3600;48.568;7.870;2022-12-15T07:01:29;-1.60;99.90
7117;DHT22;3600;48.568;7.870;2022-12-15T07:03:56;-1.70;99.90
7117;DHT22;3600;48.568;7.870;2022-12-15T07:06:26;-1.80;99.90
7117;DHT22;3600;48.568;7.870;2022-12-15T07:08:53;-1.70;99.90
7117;DHT22;3600;48.568;7.870;2022-12-15T07:11:22;-1.60;99.90
7117;DHT22;3600;48.568;7.870;2022-12-15T07:13:53;-1.60;99.90
7117;DHT22;3600;48.568;7.870;2022-12-15T07:16:21;-1.60;99.90
7117;DHT22;3600;48.568;7.870;2022-12-15T07:18:48;-1.60;99.90
7117;DHT22;3600;48.568;7.870;2022-12-15T07:21:15;-1.60;99.90
7117;DHT22;3600;48.568;7.870;2022-12-15T07:23:42;-1.60;99.90
7117;DHT22;3600;48.568;7.870;2022-12-15T07:26:26;-1.60;99.90
7117;DHT22;3600;48.568;7.870;2022-12-15T07:28:53;-1.40;99.90
7117;DHT22;3600;48.568;7.870;2022-12-15T07:31:21;-1.60;99.90
7117;DHT22;3600;48.568;7.870;2022-12-15T07:33:48;-1.60;99.90
7117;DHT22;3600;48.568;7.870;2022-12-15T07:36:15;-1.50;99.90
7117;DHT22;3600;48.568;7.870;2022-12-15T07:38:42;-1.50;99.90
7117;DHT22;3600;48.568;7.870;2022-12-15T07:41:15;-1.50;99.90
7117;DHT22;3600;48.568;7.870;2022-12-15T07:43:42;-1.50;99.90
7117;DHT22;3600;48.568;7.870;2022-12-15T07:46:10;-1.60;99.90
7117;DHT22;3600;48.568;7.870;2022-12-15T07:48:40;-1.40;99.90
7117;DHT22;3600;48.568;7.870;2022-12-15T07:51:07;-1.50;99.90
7117;DHT22;3600;48.568;7.870;2022-12-15T07:53:42;-1.50;99.90
7117;DHT22;3600;48.568;7.870;2022-12-15T07:56:09;-1.30;99.90
7117;DHT22;3600;48.568;7.870;2022-12-15T07:58:37;-1.40;99.90
7117;DHT22;3600;48.568;7.870;2022-12-15T08:01:07;-1.40;99.90
7117;DHT22;3600;48.568;7.870;2022-12-15T08:03:37;-1.40;99.90
7117;DHT22;3600;48.568;7.870;2022-12-15T08:06:10;-1.30;99.90
7117;DHT22;3600;48.568;7.870;2022-12-15T08:08:38;-1.20;99.90
7117;DHT22;3600;48.568;7.870;2022-12-15T08:11:06;-1.40;99.90
7117;DHT22;3600;48.568;7.870;2022-12-15T08:13:34;-1.30;99.90
7117;DHT22;3600;48.568;7.870;2022-12-15T08:16:21;-1.10;99.90
7117;DHT22;3600;48.568;7.870;2022-12-15T08:18:48;-1.10;99.90
7117;DHT22;3600;48.568;7.870;2022-12-15T08:21:15;-1.20;99.90
7117;DHT22;3600;48.568;7.870;2022-12-15T08:23:42;-1.20;99.90
7117;DHT22;3600;48.568;7.870;2022-12-15T08:26:10;-1.20;99.90
7117;DHT22;3600;48.568;7.870;2022-12-15T08:28:38;-1.20;99.90
7117;DHT22;3600;48.568;7.870;2022-12-15T08:31:08;-1.30;99.90
7117;DHT22;3600;48.568;7.870;2022-12-15T08:33:36;-1.10;99.90
7117;DHT22;3600;48.568;7.870;2022-12-15T08:36:08;-0.90;99.90
7117;DHT22;3600;48.568;7.870;2022-12-15T08:38:37;-1.20;99.90
7117;DHT22;3600;48.568;7.870;2022-12-15T08:43:40;-1.40;99.90
7117;DHT22;3600;48.568;7.870;2022-12-15T08:46:18;-1.20;99.90
7117;DHT22;3600;48.568;7.870;2022-12-15T08:48:45;-1.20;99.90
7117;DHT22;3600;48.568;7.870;2022-12-15T08:51:12;-1.10;99.90
7117;DHT22;3600;48.568;7.870;2022-12-15T08:53:38;-0.90;99.90
7117;DHT22;3600;48.568;7.870;2022-12-15T08:56:10;-0.60;99.90
7117;DHT22;3600;48.568;7.870;2022-12-15T08:58:38;-0.60;99.90
7117;DHT22;3600;48.568;7.870;2022-12-15T09:01:07;-0.50;99.90
7117;DHT22;3600;48.568;7.870;2022-12-15T09:03:34;-0.80;99.90
7117;DHT22;3600;48.568;7.870;2022-12-15T09:06:03;-0.70;99.90
7117;DHT22;3600;48.568;7.870;2022-12-15T09:08:31;-0.80;99.90
7117;DHT22;3600;48.568;7.870;2022-12-15T09:10:59;-0.90;99.90
7117;DHT22;3600;48.568;7.870;2022-12-15T09:13:26;-0.70;99.90
7117;DHT22;3600;48.568;7.870;2022-12-15T09:16:01;-0.60;99.90
7117;DHT22;3600;48.568;7.870;2022-12-15T09:18:37;-0.70;99.90
7117;DHT22;3600;48.568;7.870;2022-12-15T09:21:05;-0.70;99.90
7117;DHT22;3600;48.568;7.870;2022-12-15T09:23:33;-0.70;99.90
7117;DHT22;3600;48.568;7.870;2022-12-15T09:26:06;-0.80;99.90
7117;DHT22;3600;48.568;7.870;2022-12-15T09:28:33;-0.80;99.90
7117;DHT22;3600;48.568;7.870;2022-12-15T09:31:09;-0.70;99.90
7117;DHT22;3600;48.568;7.870;2022-12-15T09:33:36;-0.50;99.90
7117;DHT22;3600;48.568;7.870;2022-12-15T09:36:04;-0.60;99.90
7117;DHT22;3600;48.568;7.870;2022-12-15T09:38:35;-0.50;99.90
7117;DHT22;3600;48.568;7.870;2022-12-15T09:46:49;-0.60;99.90
7117;DHT22;3600;48.568;7.870;2022-12-15T09:49:49;-0.60;99.90
7117;DHT22;3600;48.568;7.870;2022-12-15T09:54:50;-0.70;99.90
7117;DHT22;3600;48.568;7.870;2022-12-15T09:57:35;-0.60;99.90
7117;DHT22;3600;48.568;7.870;2022-12-15T10:08:37;-0.50;99.90
7117;DHT22;3600;48.568;7.870;2022-12-15T10:16:31;-0.60;99.90
7117;DHT22;3600;48.568;7.870;2022-12-15T10:19:17;-0.40;99.90
7117;DHT22;3600;48.568;7.870;2022-12-15T10:21:47;-0.40;99.90
7117;DHT22;3600;48.568;7.870;2022-12-15T10:24:20;-0.50;99.90
7117;DHT22;3600;48.568;7.870;2022-12-15T10:30:02;-0.60;99.90
7117;DHT22;3600;48.568;7.870;2022-12-15T10:35:22;-0.50;99.90
7117;DHT22;3600;48.568;7.870;2022-12-15T10:37:49;-0.50;99.90
7117;DHT22;3600;48.568;7.870;2022-12-15T10:40:43;-0.50;99.90
7117;DHT22;3600;48.568;7.870;2022-12-15T10:43:26;-0.30;99.90
7117;DHT22;3600;48.568;7.870;2022-12-15T10:46:25;-0.40;99.90
7117;DHT22;3600;48.568;7.870;2022-12-15T10:49:38;-0.30;99.90
7117;DHT22;3600;48.568;7.870;2022-12-15T10:51:56;-0.50;99.90
7117;DHT22;3600;48.568;7.870;2022-12-15T10:54:31;-0.50;99.90
7117;DHT22;3600;48.568;7.870;2022-12-15T10:57:14;-0.50;99.90
7117;DHT22;3600;48.568;7.870;2022-12-15T10:59:41;-0.60;99.90
7117;DHT22;3600;48.568;7.870;2022-12-15T11:07:36;-0.50;99.90
7117;DHT22;3600;48.568;7.870;2022-12-15T11:10:35;-0.40;99.90
7117;DHT22;3600;48.568;7.870;2022-12-15T11:13:24;-0.30;99.90
7117;DHT22;3600;48.568;7.870;2022-12-15T11:16:15;-0.30;99.90
7117;DHT22;3600;48.568;7.870;2022-12-15T11:18:54;-0.50;99.90
7117;DHT22;3600;48.568;7.870;2022-12-15T11:21:38;-0.30;99.90
7117;DHT22;3600;48.568;7.870;2022-12-15T11:24:17;-0.50;99.90
7117;DHT22;3600;48.568;7.870;2022-12-15T11:27:18;-0.60;99.90
7117;DHT22;3600;48.568;7.870;2022-12-15T11:32:28;-0.80;99.90
7117;DHT22;3600;48.568;7.870;2022-12-15T11:34:55;-0.60;99.90
7117;DHT22;3600;48.568;7.870;2022-12-15T11:37:42;-0.40;99.90
7117;DHT22;3600;48.568;7.870;2022-12-15T11:40:21;-0.80;99.90
7117;DHT22;3600;48.568;7.870;2022-12-15T12:00:42;-0.40;99.90
7117;DHT22;3600;48.568;7.870;2022-12-15T12:05:58;0.10;99.90
7117;DHT22;3600;48.568;7.870;2022-12-15T12:11:14;-0.10;99.90
7117;DHT22;3600;48.568;7.870;2022-12-15T12:19:44;-0.20;99.90
7117;DHT22;3600;48.568;7.870;2022-12-15T12:22:33;0.00;99.90
7117;DHT22;3600;48.568;7.870;2022-12-15T12:27:39;-0.20;99.90
7117;DHT22;3600;48.568;7.870;2022-12-15T12:30:11;0.00;99.90
7117;DHT22;3600;48.568;7.870;2022-12-15T12:32:50;0.00;99.90
7117;DHT22;3600;48.568;7.870;2022-12-15T12:38:05;-0.10;99.90
7117;DHT22;3600;48.568;7.870;2022-12-15T12:40:58;-0.10;99.90
7117;DHT22;3600;48.568;7.870;2022-12-15T12:48:53;-0.10;99.90
7117;DHT22;3600;48.568;7.870;2022-12-15T12:51:31;-0.20;99.90
7117;DHT22;3600;48.568;7.870;2022-12-15T12:53:59;-0.10;99.90
7117;DHT22;3600;48.568;7.870;2022-12-15T12:59:03;0.00;99.90
7117;DHT22;3600;48.568;7.870;2022-12-15T13:01:35;-0.10;99.90
7117;DHT22;3600;48.568;7.870;2022-12-15T13:07:37;0.00;99.90
7117;DHT22;3600;48.568;7.870;2022-12-15T13:10:20;0.00;99.90
7117;DHT22;3600;48.568;7.870;2022-12-15T13:12:54;0.00;99.90
7117;DHT22;3600;48.568;7.870;2022-12-15T13:20:35;0.10;99.90
7117;DHT22;3600;48.568;7.870;2022-12-15T13:44:43;-0.10;99.90
7117;DHT22;3600;48.568;7.870;2022-12-15T13:47:30;-0.10;99.90
7117;DHT22;3600;48.568;7.870;2022-12-15T13:52:37;0.00;99.90
7117;DHT22;3600;48.568;7.870;2022-12-15T13:55:37;0.00;99.90
7117;DHT22;3600;48.568;7.870;2022-12-15T13:58:12;0.10;99.90
7117;DHT22;3600;48.568;7.870;2022-12-15T14:00:50;0.10;99.90
7117;DHT22;3600;48.568;7.870;2022-12-15T14:03:17;-0.10;99.90
7117;DHT22;3600;48.568;7.870;2022-12-15T14:05:50;-0.10;99.90
7117;DHT22;3600;48.568;7.870;2022-12-15T14:08:19;0.10;99.90
7117;DHT22;3600;48.568;7.870;2022-12-15T14:10:54;0.10;99.90
7117;DHT22;3600;48.568;7.870;2022-12-15T14:13:27;-0.10;99.90
7117;DHT22;3600;48.568;7.870;2022-12-15T14:16:03;-0.20;99.90
7117;DHT22;3600;48.568;7.870;2022-12-15T14:18:33;-0.20;99.90
7117;DHT22;3600;48.568;7.870;2022-12-15T14:21:06;-0.10;99.90
7117;DHT22;3600;48.568;7.870;2022-12-15T14:23:41;0.10;99.90
7117;DHT22;3600;48.568;7.870;2022-12-15T14:26:28;0.00;99.90
7117;DHT22;3600;48.568;7.870;2022-12-15T14:29:03;0.00;99.90
7117;DHT22;3600;48.568;7.870;2022-12-15T14:31:31;0.10;99.90
7117;DHT22;3600;48.568;7.870;2022-12-15T14:34:08;0.00;99.90
7117;DHT22;3600;48.568;7.870;2022-12-15T14:36:38;-0.20;99.90
7117;DHT22;3600;48.568;7.870;2022-12-15T14:39:34;-0.10;99.90
7117;DHT22;3600;48.568;7.870;2022-12-15T14:41:59;-0.10;99.90
7117;DHT22;3600;48.568;7.870;2022-12-15T14:44:36;0.00;99.90
7117;DHT22;3600;48.568;7.870;2022-12-15T14:47:34;-0.10;99.90
7117;DHT22;3600;48.568;7.870;2022-12-15T14:50:02;0.10;99.90
7117;DHT22;3600;48.568;7.870;2022-12-15T14:52:30;0.10;99.90
7117;DHT22;3600;48.568;7.870;2022-12-15T14:55:00;0.20;99.90
7117;DHT22;3600;48.568;7.870;2022-12-15T14:57:47;0.00;99.90
7117;DHT22;3600;48.568;7.870;2022-12-15T15:08:18;0.00;99.90
7117;DHT22;3600;48.568;7.870;2022-12-15T15:10:47;0.00;99.90
7117;DHT22;3600;48.568;7.870;2022-12-15T15:13:20;-0.10;99.90
7117;DHT22;3600;48.568;7.870;2022-12-15T15:15:58;0.10;99.90
7117;DHT22;3600;48.568;7.870;2022-12-15T15:18:27;0.10;99.90
7117;DHT22;3600;48.568;7.870;2022-12-15T15:20:58;0.10;99.90
7117;DHT22;3600;48.568;7.870;2022-12-15T15:23:26;-0.10;99.90
7117;DHT22;3600;48.568;7.870;2022-12-15T15:25:55;-0.30;99.90
7117;DHT22;3600;48.568;7.870;2022-12-15T15:28:25;-0.20;99.90
7117;DHT22;3600;48.568;7.870;2022-12-15T15:30:53;-0.20;99.90
7117;DHT22;3600;48.568;7.870;2022-12-15T15:33:23;-0.20;99.90
7117;DHT22;3600;48.568;7.870;2022-12-15T15:35:52;-0.20;99.90
7117;DHT22;3600;48.568;7.870;2022-12-15T15:38:23;-0.10;99.90
7117;DHT22;3600;48.568;7.870;2022-12-15T15:40:55;-0.20;99.90
7117;DHT22;3600;48.568;7.870;2022-12-15T15:43:23;-0.30;99.90
7117;DHT22;3600;48.568;7.870;2022-12-15T15:45:59;-0.50;99.90
7117;DHT22;3600;48.568;7.870;2022-12-15T15:48:33;-0.30;99.90
7117;DHT22;3600;48.568;7.870;2022-12-15T15:51:03;-0.20;99.90
7117;DHT22;3600;48.568;7.870;2022-12-15T15:53:32;-0.30;99.90
7117;DHT22;3600;48.568;7.870;2022-12-15T15:55:59;-0.30;99.90
7117;DHT22;3600;48.568;7.870;2022-12-15T15:58:27;-0.50;99.90
7117;DHT22;3600;48.568;7.870;2022-12-15T16:00:55;-0.50;99.90
7117;DHT22;3600;48.568;7.870;2022-12-15T16:03:21;-0.60;99.90
7117;DHT22;3600;48.568;7.870;2022-12-15T16:05:48;-0.40;99.90
7117;DHT22;3600;48.568;7.870;2022-12-15T16:08:20;-0.30;99.90
7117;DHT22;3600;48.568;7.870;2022-12-15T16:10:48;-0.30;99.90
7117;DHT22;3600;48.568;7.870;2022-12-15T16:13:17;-0.20;99.90
7117;DHT22;3600;48.568;7.870;2022-12-15T16:15:51;-0.40;99.90
7117;DHT22;3600;48.568;7.870;2022-12-15T16:18:18;-0.30;99.90
7117;DHT22;3600;48.568;7.870;2022-12-15T16:20:47;-0.40;99.90
7117;DHT22;3600;48.568;7.870;2022-12-15T16:23:18;-0.30;99.90
7117;DHT22;3600;48.568;7.870;2022-12-15T16:25:50;-0.50;99.90
7117;DHT22;3600;48.568;7.870;2022-12-15T16:28:20;-0.40;99.90
7117;DHT22;3600;48.568;7.870;2022-12-15T16:30:47;-0.30;99.90
7117;DHT22;3600;48.568;7.870;2022-12-15T16:33:14;-0.50;99.90
7117;DHT22;3600;48.568;7.870;2022-12-15T16:35:42;-0.70;99.90
7117;DHT22;3600;48.568;7.870;2022-12-15T16:38:26;-0.50;99.90
7117;DHT22;3600;48.568;7.870;2022-12-15T16:40:54;-0.40;99.90
7117;DHT22;3600;48.568;7.870;2022-12-15T16:43:23;-0.40;99.90
7117;DHT22;3600;48.568;7.870;2022-12-15T16:45:52;-0.50;99.90
7117;DHT22;3600;48.568;7.870;2022-12-15T16:48:20;-0.50;99.90
7117;DHT22;3600;48.568;7.870;2022-12-15T16:50:57;-0.40;99.90
7117;DHT22;3600;48.568;7.870;2022-12-15T16:53:27;-0.40;99.90
7117;DHT22;3600;48.568;7.870;2022-12-15T16:56:00;-0.50;99.90
7117;DHT22;3600;48.568;7.870;2022-12-15T16:58:28;-0.60;99.90
7117;DHT22;3600;48.568;7.870;2022-12-15T17:00:57;-0.60;99.90
7117;DHT22;3600;48.568;7.870;2022-12-15T17:03:24;-0.50;99.90
7117;DHT22;3600;48.568;7.870;2022-12-15T17:05:55;-0.40;99.90
7117;DHT22;3600;48.568;7.870;2022-12-15T17:08:42;-0.60;99.90
7117;DHT22;3600;48.568;7.870;2022-12-15T17:11:16;-0.50;99.90
7117;DHT22;3600;48.568;7.870;2022-12-15T17:13:44;-0.50;99.90
7117;DHT22;3600;48.568;7.870;2022-12-15T17:16:13;-0.60;99.90
7117;DHT22;3600;48.568;7.870;2022-12-15T17:18:40;-0.80;99.90
7117;DHT22;3600;48.568;7.870;2022-12-15T17:23:46;-0.50;99.90
7117;DHT22;3600;48.568;7.870;2022-12-15T17:26:20;-0.70;99.90
7117;DHT22;3600;48.568;7.870;2022-12-15T17:28:57;-1.00;99.90
7117;DHT22;3600;48.568;7.870;2022-12-15T17:31:24;-0.80;99.90
7117;DHT22;3600;48.568;7.870;2022-12-15T17:34:00;-0.70;99.90
7117;DHT22;3600;48.568;7.870;2022-12-15T17:36:28;-0.90;99.90
7117;DHT22;3600;48.568;7.870;2022-12-15T17:38:59;-0.70;99.90
7117;DHT22;3600;48.568;7.870;2022-12-15T17:41:27;-0.60;99.90
7117;DHT22;3600;48.568;7.870;2022-12-15T17:44:23;-0.70;99.90
7117;DHT22;3600;48.568;7.870;2022-12-15T17:47:00;-0.70;99.90
7117;DHT22;3600;48.568;7.870;2022-12-15T17:49:27;-0.60;99.90
7117;DHT22;3600;48.568;7.870;2022-12-15T17:54:29;-0.90;99.90
7117;DHT22;3600;48.568;7.870;2022-12-15T17:56:55;-0.80;99.90
7117;DHT22;3600;48.568;7.870;2022-12-15T17:59:22;-0.80;99.90
7117;DHT22;3600;48.568;7.870;2022-12-15T18:01:49;-0.60;99.90
7117;DHT22;3600;48.568;7.870;2022-12-15T18:04:16;-0.50;99.90
7117;DHT22;3600;48.568;7.870;2022-12-15T18:06:43;-0.60;99.90
7117;DHT22;3600;48.568;7.870;2022-12-15T18:09:15;-0.70;99.90
7117;DHT22;3600;48.568;7.870;2022-12-15T18:11:43;-1.00;99.90
7117;DHT22;3600;48.568;7.870;2022-12-15T18:14:13;-1.10;99.90
7117;DHT22;3600;48.568;7.870;2022-12-15T18:16:41;-1.20;99.90
7117;DHT22;3600;48.568;7.870;2022-12-15T18:19:08;-1.20;99.90
7117;DHT22;3600;48.568;7.870;2022-12-15T18:21:35;-1.30;99.90
7117;DHT22;3600;48.568;7.870;2022-12-15T18:24:03;-1.00;99.90
7117;DHT22;3600;48.568;7.870;2022-12-15T18:26:29;-1.10;99.90
7117;DHT22;3600;48.568;7.870;2022-12-15T18:29:14;-1.00;99.90
7117;DHT22;3600;48.568;7.870;2022-12-15T18:31:44;-1.00;99.90
7117;DHT22;3600;48.568;7.870;2022-12-15T18:34:14;-1.20;99.90
7117;DHT22;3600;48.568;7.870;2022-12-15T18:36:41;-1.40;99.90
7117;DHT22;3600;48.568;7.870;2022-12-15T18:39:19;-1.30;99.90
7117;DHT22;3600;48.568;7.870;2022-12-15T18:41:49;-1.30;99.90
7117;DHT22;3600;48.568;7.870;2022-12-15T18:44:21;-1.40;99.90
7117;DHT22;3600;48.568;7.870;2022-12-15T18:46:48;-1.20;99.90
7117;DHT22;3600;48.568;7.870;2022-12-15T18:49:16;-1.20;99.90
7117;DHT22;3600;48.568;7.870;2022-12-15T18:51:43;-1.20;99.90
7117;DHT22;3600;48.568;7.870;2022-12-15T18:54:22;-1.20;99.90
7117;DHT22;3600;48.568;7.870;2022-12-15T18:56:50;-1.20;99.90
7117;DHT22;3600;48.568;7.870;2022-12-15T18:59:17;-1.30;99.90
7117;DHT22;3600;48.568;7.870;2022-12-15T19:01:45;-1.60;99.90
7117;DHT22;3600;48.568;7.870;2022-12-15T19:04:13;-1.60;99.90
7117;DHT22;3600;48.568;7.870;2022-12-15T19:06:40;-1.40;99.90
7117;DHT22;3600;48.568;7.870;2022-12-15T19:09:16;-1.20;99.90
7117;DHT22;3600;48.568;7.870;2022-12-15T19:11:45;-1.30;99.90
7117;DHT22;3600;48.568;7.870;2022-12-15T19:14:31;-1.40;99.90
7117;DHT22;3600;48.568;7.870;2022-12-15T19:17:14;-1.10;99.90
7117;DHT22;3600;48.568;7.870;2022-12-15T19:19:59;-1.20;99.90